sensor_id;sensor_type;location;lat;lon;timestamp;P1;durP1;ratioP1;P2;durP2;ratioP2
59532;SDS011;45351;53.596;10.000;2022-08-06T00:02:03;2.30;;;0.70;;
59532;SDS011;45351;53.596;10.000;2022-08-06T00:04:30;1.70;;;0.80;;
59532;SDS011;45351;53.596;10.000;2022-08-06T00:06:57;4.10;;;0.83;;
59532;SDS011;45351;53.596;10.000;2022-08-06T00:09:24;1.20;;;0.90;;
59532;SDS011;45351;53.596;10.000;2022-08-06T00:11:55;2.57;;;1.10;;
59532;SDS011;45351;53.596;10.000;2022-08-06T00:14:22;3.83;;;0.87;;
59532;SDS011;45351;53.596;10.000;2022-08-06T00:16:49;3.00;;;1.00;;
59532;SDS011;45351;53.596;10.000;2022-08-06T00:19:17;1.20;;;0.70;;
59532;SDS011;45351;53.596;10.000;2022-08-06T00:21:44;3.13;;;1.00;;
59532;SDS011;45351;53.596;10.000;2022-08-06T00:24:11;5.23;;;0.97;;
59532;SDS011;45351;53.596;10.000;2022-08-06T00:26:38;2.90;;;0.80;;
59532;SDS011;45351;53.596;10.000;2022-08-06T00:29:06;2.07;;;0.80;;
59532;SDS011;45351;53.596;10.000;2022-08-06T00:31:33;4.50;;;1.20;;
59532;SDS011;45351;53.596;10.000;2022-08-06T00:34:00;5.37;;;1.17;;
59532;SDS011;45351;53.596;10.000;2022-08-06T00:36:30;4.73;;;0.87;;
59532;SDS011;45351;53.596;10.000;2022-08-06T00:38:58;2.00;;;0.93;;
59532;SDS011;45351;53.596;10.000;2022-08-06T00:41:28;1.40;;;0.80;;
59532;SDS011;45351;53.596;10.000;2022-08-06T00:43:56;1.90;;;0.80;;
59532;SDS011;45351;53.596;10.000;2022-08-06T00:46:23;1.10;;;0.70;;
59532;SDS011;45351;53.596;10.000;2022-08-06T00:48:50;3.80;;;0.90;;
59532;SDS011;45351;53.596;10.000;2022-08-06T00:51:18;2.00;;;0.90;;
59532;SDS011;45351;53.596;10.000;2022-08-06T00:53:46;2.00;;;0.90;;
59532;SDS011;45351;53.596;10.000;2022-08-06T00:56:13;2.33;;;0.83;;
59532;SDS011;45351;53.596;10.000;2022-08-06T00:58:40;4.70;;;0.80;;
59532;SDS011;45351;53.596;10.000;2022-08-06T01:01:07;2.07;;;0.87;;
59532;SDS011;45351;53.596;10.000;2022-08-06T01:03:34;7.07;;;1.10;;
59532;SDS011;45351;53.596;10.000;2022-08-06T01:06:01;1.20;;;0.90;;
59532;SDS011;45351;53.596;10.000;2022-08-06T01:08:28;1.50;;;0.70;;
59532;SDS011;45351;53.596;10.000;2022-08-06T01:10:56;1.60;;;0.80;;
59532;SDS011;45351;53.596;10.000;2022-08-06T01:13:23;1.67;;;0.90;;
59532;SDS011;45351;53.596;10.000;2022-08-06T01:15:50;2.00;;;0.90;;
59532;SDS011;45351;53.596;10.000;2022-08-06T01:18:23;1.50;;;0.80;;
59532;SDS011;45351;53.596;10.000;2022-08-06T01:20:58;2.20;;;0.90;;
59532;SDS011;45351;53.596;10.000;2022-08-06T01:23:41;2.07;;;0.80;;
59532;SDS011;45351;53.596;10.000;2022-08-06T01:26:26;3.53;;;1.10;;
59532;SDS011;45351;53.596;10.000;2022-08-06T01:29:02;1.50;;;0.90;;
59532;SDS011;45351;53.596;10.000;2022-08-06T01:31:33;5.63;;;0.83;;
59532;SDS011;45351;53.596;10.000;2022-08-06T01:34:05;2.10;;;0.80;;
59532;SDS011;45351;53.596;10.000;2022-08-06T01:36:36;1.73;;;0.80;;
59532;SDS011;45351;53.596;10.000;2022-08-06T01:39:08;3.13;;;0.80;;
59532;SDS011;45351;53.596;10.000;2022-08-06T01:41:40;1.93;;;1.00;;
59532;SDS011;45351;53.596;10.000;2022-08-06T01:44:12;2.73;;;0.87;;
59532;SDS011;45351;53.596;10.000;2022-08-06T01:46:43;1.40;;;0.90;;
59532;SDS011;45351;53.596;10.000;2022-08-06T01:49:33;2.07;;;0.90;;
59532;SDS011;45351;53.596;10.000;2022-08-06T01:52:21;4.60;;;0.80;;
59532;SDS011;45351;53.596;10.000;2022-08-06T01:55:11;3.50;;;0.97;;
59532;SDS011;45351;53.596;10.000;2022-08-06T01:58:01;1.87;;;0.63;;
59532;SDS011;45351;53.596;10.000;2022-08-06T02:00:52;2.37;;;0.83;;
59532;SDS011;45351;53.596;10.000;2022-08-06T02:03:42;3.20;;;0.93;;
59532;SDS011;45351;53.596;10.000;2022-08-06T02:06:12;1.40;;;0.77;;
59532;SDS011;45351;53.596;10.000;2022-08-06T02:08:44;2.30;;;0.87;;
59532;SDS011;45351;53.596;10.000;2022-08-06T02:11:13;4.70;;;0.90;;
59532;SDS011;45351;53.596;10.000;2022-08-06T02:13:40;3.10;;;1.33;;
59532;SDS011;45351;53.596;10.000;2022-08-06T02:16:11;2.53;;;0.80;;
59532;SDS011;45351;53.596;10.000;2022-08-06T02:18:40;3.20;;;0.80;;
59532;SDS011;45351;53.596;10.000;2022-08-06T02:21:10;1.67;;;0.80;;
59532;SDS011;45351;53.596;10.000;2022-08-06T02:23:41;3.23;;;1.10;;
59532;SDS011;45351;53.596;10.000;2022-08-06T02:26:09;2.13;;;0.90;;
59532;SDS011;45351;53.596;10.000;2022-08-06T02:28:37;1.00;;;0.80;;
59532;SDS011;45351;53.596;10.000;2022-08-06T02:31:07;1.47;;;0.90;;
59532;SDS011;45351;53.596;10.000;2022-08-06T02:33:36;2.90;;;0.80;;
59532;SDS011;45351;53.596;10.000;2022-08-06T02:36:04;2.23;;;1.00;;
59532;SDS011;45351;53.596;10.000;2022-08-06T02:38:39;1.73;;;0.97;;
59532;SDS011;45351;53.596;10.000;2022-08-06T02:41:24;2.30;;;0.80;;
59532;SDS011;45351;53.596;10.000;2022-08-06T02:43:56;3.00;;;0.80;;
59532;SDS011;45351;53.596;10.000;2022-08-06T02:46:30;1.20;;;0.80;;
59532;SDS011;45351;53.596;10.000;2022-08-06T02:49:03;2.73;;;0.93;;
59532;SDS011;45351;53.596;10.000;2022-08-06T02:51:37;2.03;;;0.90;;
59532;SDS011;45351;53.596;10.000;2022-08-06T02:54:07;1.30;;;0.77;;
59532;SDS011;45351;53.596;10.000;2022-08-06T02:56:44;3.40;;;1.00;;
59532;SDS011;45351;53.596;10.000;2022-08-06T02:59:13;1.10;;;0.70;;
59532;SDS011;45351;53.596;10.000;2022-08-06T03:01:45;3.93;;;0.93;;
59532;SDS011;45351;53.596;10.000;2022-08-06T03:04:17;1.83;;;0.80;;
59532;SDS011;45351;53.596;10.000;2022-08-06T03:06:46;1.17;;;0.93;;
59532;SDS011;45351;53.596;10.000;2022-08-06T03:09:14;1.77;;;0.90;;
59532;SDS011;45351;53.596;10.000;2022-08-06T03:11:42;2.00;;;0.80;;
59532;SDS011;45351;53.596;10.000;2022-08-06T03:14:12;2.13;;;0.80;;
59532;SDS011;45351;53.596;10.000;2022-08-06T03:16:42;5.00;;;0.90;;
59532;SDS011;45351;53.596;10.000;2022-08-06T03:19:10;2.67;;;1.00;;
59532;SDS011;45351;53.596;10.000;2022-08-06T03:21:40;1.47;;;0.90;;
59532;SDS011;45351;53.596;10.000;2022-08-06T03:24:08;2.33;;;0.97;;
59532;SDS011;45351;53.596;10.000;2022-08-06T03:26:37;6.30;;;0.90;;
59532;SDS011;45351;53.596;10.000;2022-08-06T03:29:06;1.50;;;0.80;;
59532;SDS011;45351;53.596;10.000;2022-08-06T03:31:34;2.27;;;0.90;;
59532;SDS011;45351;53.596;10.000;2022-08-06T03:34:01;1.40;;;0.80;;
59532;SDS011;45351;53.596;10.000;2022-08-06T03:36:28;5.53;;;0.80;;
59532;SDS011;45351;53.596;10.000;2022-08-06T03:38:58;2.13;;;0.80;;
59532;SDS011;45351;53.596;10.000;2022-08-06T03:41:28;1.67;;;0.90;;
59532;SDS011;45351;53.596;10.000;2022-08-06T03:43:58;1.83;;;0.80;;
59532;SDS011;45351;53.596;10.000;2022-08-06T03:46:26;1.40;;;0.80;;
59532;SDS011;45351;53.596;10.000;2022-08-06T03:48:57;2.07;;;0.80;;
59532;SDS011;45351;53.596;10.000;2022-08-06T03:51:27;1.10;;;0.77;;
59532;SDS011;45351;53.596;10.000;2022-08-06T03:53:57;1.10;;;0.80;;
59532;SDS011;45351;53.596;10.000;2022-08-06T03:56:27;1.40;;;0.80;;
59532;SDS011;45351;53.596;10.000;2022-08-06T03:58:56;1.23;;;0.83;;
59532;SDS011;45351;53.596;10.000;2022-08-06T04:01:27;3.90;;;1.13;;
59532;SDS011;45351;53.596;10.000;2022-08-06T04:04:00;1.43;;;0.87;;
59532;SDS011;45351;53.596;10.000;2022-08-06T04:06:28;1.97;;;0.90;;
59532;SDS011;45351;53.596;10.000;2022-08-06T04:08:57;2.57;;;0.80;;
59532;SDS011;45351;53.596;10.000;2022-08-06T04:11:26;1.30;;;0.90;;
59532;SDS011;45351;53.596;10.000;2022-08-06T04:13:54;2.83;;;1.00;;
59532;SDS011;45351;53.596;10.000;2022-08-06T04:16:21;1.40;;;1.03;;
59532;SDS011;45351;53.596;10.000;2022-08-06T04:18:48;2.47;;;1.20;;
59532;SDS011;45351;53.596;10.000;2022-08-06T04:21:20;1.87;;;0.90;;
59532;SDS011;45351;53.596;10.000;2022-08-06T04:23:49;2.00;;;0.83;;
59532;SDS011;45351;53.596;10.000;2022-08-06T04:26:19;2.37;;;0.90;;
59532;SDS011;45351;53.596;10.000;2022-08-06T04:28:49;1.70;;;1.00;;
59532;SDS011;45351;53.596;10.000;2022-08-06T04:31:19;1.97;;;1.00;;
59532;SDS011;45351;53.596;10.000;2022-08-06T04:33:46;3.47;;;0.80;;
59532;SDS011;45351;53.596;10.000;2022-08-06T04:36:14;1.50;;;0.80;;
59532;SDS011;45351;53.596;10.000;2022-08-06T04:38:42;3.23;;;0.70;;
59532;SDS011;45351;53.596;10.000;2022-08-06T04:41:09;6.27;;;1.10;;
59532;SDS011;45351;53.596;10.000;2022-08-06T04:43:39;3.27;;;1.23;;
59532;SDS011;45351;53.596;10.000;2022-08-06T04:46:07;1.90;;;1.00;;
59532;SDS011;45351;53.596;10.000;2022-08-06T04:48:35;3.20;;;1.10;;
59532;SDS011;45351;53.596;10.000;2022-08-06T04:51:02;1.50;;;0.80;;
59532;SDS011;45351;53.596;10.000;2022-08-06T04:53:34;1.20;;;1.00;;
59532;SDS011;45351;53.596;10.000;2022-08-06T04:56:03;1.53;;;0.73;;
59532;SDS011;45351;53.596;10.000;2022-08-06T04:58:31;2.27;;;0.90;;
59532;SDS011;45351;53.596;10.000;2022-08-06T05:00:59;1.60;;;0.90;;
59532;SDS011;45351;53.596;10.000;2022-08-06T05:03:26;1.60;;;0.90;;
59532;SDS011;45351;53.596;10.000;2022-08-06T05:05:55;1.90;;;1.00;;
59532;SDS011;45351;53.596;10.000;2022-08-06T05:08:28;2.17;;;1.10;;
59532;SDS011;45351;53.596;10.000;2022-08-06T05:10:59;5.03;;;1.00;;
59532;SDS011;45351;53.596;10.000;2022-08-06T05:13:29;1.57;;;0.80;;
59532;SDS011;45351;53.596;10.000;2022-08-06T05:16:06;1.50;;;0.87;;
59532;SDS011;45351;53.596;10.000;2022-08-06T05:18:36;3.67;;;0.93;;
59532;SDS011;45351;53.596;10.000;2022-08-06T05:21:06;3.53;;;0.90;;
59532;SDS011;45351;53.596;10.000;2022-08-06T05:23:37;1.97;;;0.80;;
59532;SDS011;45351;53.596;10.000;2022-08-06T05:26:08;1.27;;;0.80;;
59532;SDS011;45351;53.596;10.000;2022-08-06T05:28:38;1.73;;;0.80;;
59532;SDS011;45351;53.596;10.000;2022-08-06T05:31:06;2.50;;;0.87;;
59532;SDS011;45351;53.596;10.000;2022-08-06T05:33:35;1.77;;;0.80;;
59532;SDS011;45351;53.596;10.000;2022-08-06T05:36:03;8.43;;;1.00;;
59532;SDS011;45351;53.596;10.000;2022-08-06T05:38:32;1.20;;;0.80;;
59532;SDS011;45351;53.596;10.000;2022-08-06T05:41:01;6.30;;;1.20;;
59532;SDS011;45351;53.596;10.000;2022-08-06T05:43:28;1.40;;;0.70;;
59532;SDS011;45351;53.596;10.000;2022-08-06T05:45:56;5.90;;;1.00;;
59532;SDS011;45351;53.596;10.000;2022-08-06T05:48:28;1.23;;;1.00;;
59532;SDS011;45351;53.596;10.000;2022-08-06T05:51:00;1.83;;;0.80;;
59532;SDS011;45351;53.596;10.000;2022-08-06T05:53:33;1.53;;;1.00;;
59532;SDS011;45351;53.596;10.000;2022-08-06T05:56:04;1.10;;;0.70;;
59532;SDS011;45351;53.596;10.000;2022-08-06T05:58:36;1.40;;;0.70;;
59532;SDS011;45351;53.596;10.000;2022-08-06T06:01:05;2.50;;;0.93;;
59532;SDS011;45351;53.596;10.000;2022-08-06T06:03:34;1.10;;;0.63;;
59532;SDS011;45351;53.596;10.000;2022-08-06T06:06:03;1.73;;;0.90;;
59532;SDS011;45351;53.596;10.000;2022-08-06T06:08:31;2.37;;;0.80;;
59532;SDS011;45351;53.596;10.000;2022-08-06T06:10:58;2.67;;;0.80;;
59532;SDS011;45351;53.596;10.000;2022-08-06T06:13:25;3.00;;;0.80;;
59532;SDS011;45351;53.596;10.000;2022-08-06T06:15:55;1.10;;;0.70;;
59532;SDS011;45351;53.596;10.000;2022-08-06T06:18:30;2.00;;;0.83;;
59532;SDS011;45351;53.596;10.000;2022-08-06T06:21:11;3.00;;;0.90;;
59532;SDS011;45351;53.596;10.000;2022-08-06T06:23:48;2.17;;;0.83;;
59532;SDS011;45351;53.596;10.000;2022-08-06T06:26:33;1.53;;;0.80;;
59532;SDS011;45351;53.596;10.000;2022-08-06T06:29:06;3.00;;;1.07;;
59532;SDS011;45351;53.596;10.000;2022-08-06T06:31:39;1.57;;;0.80;;
59532;SDS011;45351;53.596;10.000;2022-08-06T06:34:25;3.53;;;0.80;;
59532;SDS011;45351;53.596;10.000;2022-08-06T06:37:13;2.37;;;0.83;;
59532;SDS011;45351;53.596;10.000;2022-08-06T06:39:47;1.50;;;0.80;;
59532;SDS011;45351;53.596;10.000;2022-08-06T06:42:22;1.20;;;0.67;;
59532;SDS011;45351;53.596;10.000;2022-08-06T06:44:54;1.27;;;0.70;;
59532;SDS011;45351;53.596;10.000;2022-08-06T06:47:29;1.10;;;0.80;;
59532;SDS011;45351;53.596;10.000;2022-08-06T06:50:05;1.17;;;0.60;;
59532;SDS011;45351;53.596;10.000;2022-08-06T06:52:38;1.00;;;0.70;;
59532;SDS011;45351;53.596;10.000;2022-08-06T06:55:09;1.67;;;0.80;;
59532;SDS011;45351;53.596;10.000;2022-08-06T06:57:42;1.40;;;0.70;;
59532;SDS011;45351;53.596;10.000;2022-08-06T07:00:12;1.50;;;0.80;;
59532;SDS011;45351;53.596;10.000;2022-08-06T07:02:40;4.10;;;0.90;;
59532;SDS011;45351;53.596;10.000;2022-08-06T07:05:12;2.67;;;0.93;;
59532;SDS011;45351;53.596;10.000;2022-08-06T07:07:41;7.33;;;1.00;;
59532;SDS011;45351;53.596;10.000;2022-08-06T07:10:11;3.60;;;1.13;;
59532;SDS011;45351;53.596;10.000;2022-08-06T07:12:39;6.07;;;1.10;;
59532;SDS011;45351;53.596;10.000;2022-08-06T07:15:09;5.20;;;0.97;;
59532;SDS011;45351;53.596;10.000;2022-08-06T07:17:37;2.00;;;0.90;;
59532;SDS011;45351;53.596;10.000;2022-08-06T07:20:06;5.40;;;0.90;;
59532;SDS011;45351;53.596;10.000;2022-08-06T07:22:38;8.33;;;1.10;;
59532;SDS011;45351;53.596;10.000;2022-08-06T07:25:07;5.47;;;1.00;;
59532;SDS011;45351;53.596;10.000;2022-08-06T07:27:38;2.83;;;1.17;;
59532;SDS011;45351;53.596;10.000;2022-08-06T07:30:07;1.93;;;0.83;;
59532;SDS011;45351;53.596;10.000;2022-08-06T07:32:34;2.10;;;1.00;;
59532;SDS011;45351;53.596;10.000;2022-08-06T07:35:03;2.50;;;0.90;;
59532;SDS011;45351;53.596;10.000;2022-08-06T07:37:32;4.23;;;1.03;;
59532;SDS011;45351;53.596;10.000;2022-08-06T07:40:03;2.20;;;1.00;;
59532;SDS011;45351;53.596;10.000;2022-08-06T07:42:33;6.70;;;1.10;;
59532;SDS011;45351;53.596;10.000;2022-08-06T07:45:01;1.93;;;0.80;;
59532;SDS011;45351;53.596;10.000;2022-08-06T07:47:30;7.03;;;0.73;;
59532;SDS011;45351;53.596;10.000;2022-08-06T07:50:02;2.43;;;0.90;;
59532;SDS011;45351;53.596;10.000;2022-08-06T07:52:29;2.63;;;0.90;;
59532;SDS011;45351;53.596;10.000;2022-08-06T07:54:58;2.07;;;0.80;;
59532;SDS011;45351;53.596;10.000;2022-08-06T07:57:27;2.13;;;0.80;;
59532;SDS011;45351;53.596;10.000;2022-08-06T07:59:56;2.97;;;0.80;;
59532;SDS011;45351;53.596;10.000;2022-08-06T08:02:23;1.13;;;0.70;;
59532;SDS011;45351;53.596;10.000;2022-08-06T08:04:51;1.53;;;0.87;;
59532;SDS011;45351;53.596;10.000;2022-08-06T08:07:36;1.90;;;0.77;;
59532;SDS011;45351;53.596;10.000;2022-08-06T08:10:04;1.20;;;0.80;;
59532;SDS011;45351;53.596;10.000;2022-08-06T08:12:33;5.57;;;0.93;;
59532;SDS011;45351;53.596;10.000;2022-08-06T08:15:03;1.60;;;0.80;;
59532;SDS011;45351;53.596;10.000;2022-08-06T08:17:31;1.57;;;0.80;;
59532;SDS011;45351;53.596;10.000;2022-08-06T08:20:00;3.53;;;0.90;;
59532;SDS011;45351;53.596;10.000;2022-08-06T08:22:29;1.43;;;0.80;;
59532;SDS011;45351;53.596;10.000;2022-08-06T08:24:56;1.60;;;0.83;;
59532;SDS011;45351;53.596;10.000;2022-08-06T08:27:23;1.83;;;0.70;;
59532;SDS011;45351;53.596;10.000;2022-08-06T08:29:51;2.50;;;1.00;;
59532;SDS011;45351;53.596;10.000;2022-08-06T08:32:18;1.20;;;0.80;;
59532;SDS011;45351;53.596;10.000;2022-08-06T08:34:46;1.60;;;0.90;;
59532;SDS011;45351;53.596;10.000;2022-08-06T08:37:13;3.00;;;0.90;;
59532;SDS011;45351;53.596;10.000;2022-08-06T08:39:40;2.03;;;0.80;;
59532;SDS011;45351;53.596;10.000;2022-08-06T08:42:10;5.37;;;0.70;;
59532;SDS011;45351;53.596;10.000;2022-08-06T08:44:41;1.90;;;0.77;;
59532;SDS011;45351;53.596;10.000;2022-08-06T08:47:10;3.53;;;0.80;;
59532;SDS011;45351;53.596;10.000;2022-08-06T08:49:40;1.30;;;0.80;;
59532;SDS011;45351;53.596;10.000;2022-08-06T08:52:13;1.97;;;0.70;;
59532;SDS011;45351;53.596;10.000;2022-08-06T08:54:42;2.20;;;0.70;;
59532;SDS011;45351;53.596;10.000;2022-08-06T08:57:17;1.83;;;0.77;;
59532;SDS011;45351;53.596;10.000;2022-08-06T08:59:45;2.20;;;0.70;;
59532;SDS011;45351;53.596;10.000;2022-08-06T09:02:14;1.90;;;0.80;;
59532;SDS011;45351;53.596;10.000;2022-08-06T09:04:41;1.90;;;0.97;;
59532;SDS011;45351;53.596;10.000;2022-08-06T09:07:09;2.90;;;0.80;;
59532;SDS011;45351;53.596;10.000;2022-08-06T09:09:37;1.70;;;0.73;;
59532;SDS011;45351;53.596;10.000;2022-08-06T09:12:05;1.60;;;0.73;;
59532;SDS011;45351;53.596;10.000;2022-08-06T09:14:32;1.57;;;0.70;;
59532;SDS011;45351;53.596;10.000;2022-08-06T09:17:00;2.00;;;0.80;;
59532;SDS011;45351;53.596;10.000;2022-08-06T09:19:30;1.97;;;0.80;;
59532;SDS011;45351;53.596;10.000;2022-08-06T09:21:58;2.30;;;0.90;;
59532;SDS011;45351;53.596;10.000;2022-08-06T09:24:26;2.33;;;1.10;;
59532;SDS011;45351;53.596;10.000;2022-08-06T09:27:03;3.63;;;1.00;;
59532;SDS011;45351;53.596;10.000;2022-08-06T09:29:31;1.40;;;0.70;;
59532;SDS011;45351;53.596;10.000;2022-08-06T09:31:59;3.97;;;0.90;;
59532;SDS011;45351;53.596;10.000;2022-08-06T09:34:33;1.07;;;0.60;;
59532;SDS011;45351;53.596;10.000;2022-08-06T09:37:02;2.50;;;0.70;;
59532;SDS011;45351;53.596;10.000;2022-08-06T09:39:29;4.33;;;0.90;;
59532;SDS011;45351;53.596;10.000;2022-08-06T09:42:00;1.27;;;0.60;;
59532;SDS011;45351;53.596;10.000;2022-08-06T09:44:28;2.30;;;0.80;;
59532;SDS011;45351;53.596;10.000;2022-08-06T09:46:55;2.30;;;0.73;;
59532;SDS011;45351;53.596;10.000;2022-08-06T09:49:23;3.57;;;0.70;;
59532;SDS011;45351;53.596;10.000;2022-08-06T09:51:51;1.00;;;0.60;;
59532;SDS011;45351;53.596;10.000;2022-08-06T09:54:36;1.63;;;0.70;;
59532;SDS011;45351;53.596;10.000;2022-08-06T09:57:04;1.23;;;0.70;;
59532;SDS011;45351;53.596;10.000;2022-08-06T09:59:40;1.53;;;0.70;;
59532;SDS011;45351;53.596;10.000;2022-08-06T10:02:11;3.20;;;1.00;;
59532;SDS011;45351;53.596;10.000;2022-08-06T10:04:39;2.43;;;0.87;;
59532;SDS011;45351;53.596;10.000;2022-08-06T10:07:07;3.03;;;0.83;;
59532;SDS011;45351;53.596;10.000;2022-08-06T10:09:35;2.50;;;0.70;;
59532;SDS011;45351;53.596;10.000;2022-08-06T10:12:06;1.30;;;0.70;;
59532;SDS011;45351;53.596;10.000;2022-08-06T10:14:43;2.03;;;1.00;;
59532;SDS011;45351;53.596;10.000;2022-08-06T10:17:10;1.57;;;0.70;;
59532;SDS011;45351;53.596;10.000;2022-08-06T10:19:38;5.13;;;1.00;;
59532;SDS011;45351;53.596;10.000;2022-08-06T10:22:09;1.60;;;0.73;;
59532;SDS011;45351;53.596;10.000;2022-08-06T10:24:37;1.63;;;0.80;;
59532;SDS011;45351;53.596;10.000;2022-08-06T10:27:09;1.30;;;0.90;;
59532;SDS011;45351;53.596;10.000;2022-08-06T10:29:39;2.63;;;0.80;;
59532;SDS011;45351;53.596;10.000;2022-08-06T10:32:07;1.20;;;0.70;;
59532;SDS011;45351;53.596;10.000;2022-08-06T10:34:37;1.57;;;0.63;;
59532;SDS011;45351;53.596;10.000;2022-08-06T10:37:06;1.80;;;0.87;;
59532;SDS011;45351;53.596;10.000;2022-08-06T10:39:36;2.10;;;0.93;;
59532;SDS011;45351;53.596;10.000;2022-08-06T10:42:08;2.63;;;1.00;;
59532;SDS011;45351;53.596;10.000;2022-08-06T10:44:36;2.70;;;1.00;;
59532;SDS011;45351;53.596;10.000;2022-08-06T10:47:04;1.77;;;0.87;;
59532;SDS011;45351;53.596;10.000;2022-08-06T10:49:32;1.77;;;1.20;;
59532;SDS011;45351;53.596;10.000;2022-08-06T10:51:59;1.97;;;0.80;;
59532;SDS011;45351;53.596;10.000;2022-08-06T10:54:27;2.33;;;1.30;;
59532;SDS011;45351;53.596;10.000;2022-08-06T10:56:57;4.33;;;0.93;;
59532;SDS011;45351;53.596;10.000;2022-08-06T10:59:24;2.27;;;1.30;;
59532;SDS011;45351;53.596;10.000;2022-08-06T11:01:52;2.80;;;1.10;;
59532;SDS011;45351;53.596;10.000;2022-08-06T11:04:34;14.27;;;1.63;;
59532;SDS011;45351;53.596;10.000;2022-08-06T11:07:21;6.33;;;1.30;;
59532;SDS011;45351;53.596;10.000;2022-08-06T11:10:09;4.13;;;1.53;;
59532;SDS011;45351;53.596;10.000;2022-08-06T11:12:49;2.53;;;1.17;;
59532;SDS011;45351;53.596;10.000;2022-08-06T11:15:20;1.67;;;1.20;;
59532;SDS011;45351;53.596;10.000;2022-08-06T11:17:48;4.40;;;1.23;;
59532;SDS011;45351;53.596;10.000;2022-08-06T11:23:26;3.77;;;1.93;;
59532;SDS011;45351;53.596;10.000;2022-08-06T11:25:59;2.20;;;1.30;;
59532;SDS011;45351;53.596;10.000;2022-08-06T11:31:30;2.60;;;1.67;;
59532;SDS011;45351;53.596;10.000;2022-08-06T11:33:59;4.20;;;1.57;;
59532;SDS011;45351;53.596;10.000;2022-08-06T11:36:28;2.03;;;1.40;;
59532;SDS011;45351;53.596;10.000;2022-08-06T11:39:08;2.80;;;1.60;;
59532;SDS011;45351;53.596;10.000;2022-08-06T11:41:44;1.97;;;1.60;;
59532;SDS011;45351;53.596;10.000;2022-08-06T11:44:12;2.50;;;1.40;;
59532;SDS011;45351;53.596;10.000;2022-08-06T11:46:42;2.67;;;1.30;;
59532;SDS011;45351;53.596;10.000;2022-08-06T11:49:11;3.43;;;1.60;;
59532;SDS011;45351;53.596;10.000;2022-08-06T11:51:49;1.70;;;1.53;;
59532;SDS011;45351;53.596;10.000;2022-08-06T11:54:19;4.00;;;1.70;;
59532;SDS011;45351;53.596;10.000;2022-08-06T12:00:04;4.40;;;1.50;;
59532;SDS011;45351;53.596;10.000;2022-08-06T12:02:53;2.83;;;1.80;;
59532;SDS011;45351;53.596;10.000;2022-08-06T12:05:34;1.90;;;1.60;;
59532;SDS011;45351;53.596;10.000;2022-08-06T12:08:26;3.40;;;1.80;;
59532;SDS011;45351;53.596;10.000;2022-08-06T12:13:51;2.00;;;1.60;;
59532;SDS011;45351;53.596;10.000;2022-08-06T12:19:11;3.67;;;1.87;;
59532;SDS011;45351;53.596;10.000;2022-08-06T12:21:42;3.93;;;2.20;;
59532;SDS011;45351;53.596;10.000;2022-08-06T12:24:10;3.33;;;2.10;;
59532;SDS011;45351;53.596;10.000;2022-08-06T12:26:37;4.50;;;2.07;;
59532;SDS011;45351;53.596;10.000;2022-08-06T12:29:07;2.43;;;1.73;;
59532;SDS011;45351;53.596;10.000;2022-08-06T12:31:36;1.97;;;1.77;;
59532;SDS011;45351;53.596;10.000;2022-08-06T12:34:06;3.10;;;1.93;;
59532;SDS011;45351;53.596;10.000;2022-08-06T12:36:34;3.57;;;1.93;;
59532;SDS011;45351;53.596;10.000;2022-08-06T12:39:06;2.20;;;1.83;;
59532;SDS011;45351;53.596;10.000;2022-08-06T12:41:40;2.27;;;1.90;;
59532;SDS011;45351;53.596;10.000;2022-08-06T12:44:10;2.23;;;1.80;;
59532;SDS011;45351;53.596;10.000;2022-08-06T12:46:38;2.40;;;2.00;;
59532;SDS011;45351;53.596;10.000;2022-08-06T12:49:05;3.67;;;2.43;;
59532;SDS011;45351;53.596;10.000;2022-08-06T12:51:33;2.87;;;2.20;;
59532;SDS011;45351;53.596;10.000;2022-08-06T12:54:01;2.60;;;2.30;;
59532;SDS011;45351;53.596;10.000;2022-08-06T12:56:31;3.73;;;2.60;;
59532;SDS011;45351;53.596;10.000;2022-08-06T12:58:59;2.87;;;2.33;;
59532;SDS011;45351;53.596;10.000;2022-08-06T13:01:30;4.10;;;2.10;;
59532;SDS011;45351;53.596;10.000;2022-08-06T13:04:00;4.57;;;2.60;;
59532;SDS011;45351;53.596;10.000;2022-08-06T13:06:29;3.90;;;2.67;;
59532;SDS011;45351;53.596;10.000;2022-08-06T13:09:00;2.80;;;2.17;;
59532;SDS011;45351;53.596;10.000;2022-08-06T13:11:28;2.70;;;2.33;;
59532;SDS011;45351;53.596;10.000;2022-08-06T13:13:56;4.87;;;2.63;;
59532;SDS011;45351;53.596;10.000;2022-08-06T13:16:24;2.60;;;2.13;;
59532;SDS011;45351;53.596;10.000;2022-08-06T13:19:05;3.80;;;2.63;;
59532;SDS011;45351;53.596;10.000;2022-08-06T13:21:33;4.33;;;2.50;;
59532;SDS011;45351;53.596;10.000;2022-08-06T13:24:01;3.83;;;2.70;;
59532;SDS011;45351;53.596;10.000;2022-08-06T13:26:30;2.60;;;2.20;;
59532;SDS011;45351;53.596;10.000;2022-08-06T13:29:05;5.10;;;2.97;;
59532;SDS011;45351;53.596;10.000;2022-08-06T13:31:33;3.60;;;2.70;;
59532;SDS011;45351;53.596;10.000;2022-08-06T13:34:00;5.37;;;2.87;;
59532;SDS011;45351;53.596;10.000;2022-08-06T13:36:30;3.50;;;3.03;;
59532;SDS011;45351;53.596;10.000;2022-08-06T13:39:16;2.10;;;1.90;;
59532;SDS011;45351;53.596;10.000;2022-08-06T13:41:44;3.20;;;2.60;;
59532;SDS011;45351;53.596;10.000;2022-08-06T13:44:25;3.37;;;2.47;;
59532;SDS011;45351;53.596;10.000;2022-08-06T13:47:09;2.50;;;2.10;;
59532;SDS011;45351;53.596;10.000;2022-08-06T13:49:38;2.07;;;1.80;;
59532;SDS011;45351;53.596;10.000;2022-08-06T13:52:07;1.73;;;1.63;;
59532;SDS011;45351;53.596;10.000;2022-08-06T13:54:34;2.47;;;2.03;;
59532;SDS011;45351;53.596;10.000;2022-08-06T13:57:01;2.77;;;1.93;;
59532;SDS011;45351;53.596;10.000;2022-08-06T13:59:29;4.13;;;2.20;;
59532;SDS011;45351;53.596;10.000;2022-08-06T14:01:57;2.50;;;2.10;;
59532;SDS011;45351;53.596;10.000;2022-08-06T14:04:26;2.00;;;1.80;;
59532;SDS011;45351;53.596;10.000;2022-08-06T14:06:54;2.47;;;2.17;;
59532;SDS011;45351;53.596;10.000;2022-08-06T14:09:26;2.50;;;2.30;;
59532;SDS011;45351;53.596;10.000;2022-08-06T14:11:55;2.70;;;2.20;;
59532;SDS011;45351;53.596;10.000;2022-08-06T14:14:24;2.20;;;2.00;;
59532;SDS011;45351;53.596;10.000;2022-08-06T14:16:52;2.10;;;1.90;;
59532;SDS011;45351;53.596;10.000;2022-08-06T14:19:20;2.20;;;2.00;;
59532;SDS011;45351;53.596;10.000;2022-08-06T14:21:47;3.17;;;2.40;;
59532;SDS011;45351;53.596;10.000;2022-08-06T14:24:14;1.87;;;1.60;;
59532;SDS011;45351;53.596;10.000;2022-08-06T14:26:42;2.47;;;2.27;;
59532;SDS011;45351;53.596;10.000;2022-08-06T14:29:09;2.30;;;2.07;;
59532;SDS011;45351;53.596;10.000;2022-08-06T14:31:36;1.97;;;1.77;;
59532;SDS011;45351;53.596;10.000;2022-08-06T14:34:03;2.53;;;2.10;;
59532;SDS011;45351;53.596;10.000;2022-08-06T14:36:30;2.17;;;1.90;;
59532;SDS011;45351;53.596;10.000;2022-08-06T14:38:57;4.47;;;2.00;;
59532;SDS011;45351;53.596;10.000;2022-08-06T14:41:24;2.20;;;2.00;;
59532;SDS011;45351;53.596;10.000;2022-08-06T14:44:10;1.90;;;1.80;;
59532;SDS011;45351;53.596;10.000;2022-08-06T14:46:56;2.30;;;2.10;;
59532;SDS011;45351;53.596;10.000;2022-08-06T14:49:23;2.10;;;1.90;;
59532;SDS011;45351;53.596;10.000;2022-08-06T14:51:50;2.20;;;1.90;;
59532;SDS011;45351;53.596;10.000;2022-08-06T14:54:17;2.37;;;2.07;;
59532;SDS011;45351;53.596;10.000;2022-08-06T14:56:45;1.87;;;1.77;;
59532;SDS011;45351;53.596;10.000;2022-08-06T14:59:14;2.00;;;1.80;;
59532;SDS011;45351;53.596;10.000;2022-08-06T15:01:41;2.40;;;2.20;;
59532;SDS011;45351;53.596;10.000;2022-08-06T15:04:08;30.43;;;2.73;;
59532;SDS011;45351;53.596;10.000;2022-08-06T15:06:35;3.87;;;1.90;;
59532;SDS011;45351;53.596;10.000;2022-08-06T15:09:02;6.80;;;2.40;;